Time;durP1;ratioP1;P1;durP2;ratioP2;P2;SDS_P1;SDS_P2;PMS_P1;PMS_P2;Temp;Humidity;BMP_temperature;BMP_pressure;BME280_temperature;BME280_humidity;BME280_pressure;Samples;Min_cycle;Max_cycle;Signal;HPM_P1;HPM_P2
2023/03/16 00:00:57;;;;;;;10.73;4.43;;;;;;;5.80;77.80;101695.06;5093950;28;20040;-65
2023/03/16 00:03:24;;;;;;;8.68;4.03;;;;;;;5.88;78.45;101690.25;5092712;28;20044;-66
2023/03/16 00:05:53;;;;;;;6.75;4.18;;;;;;;5.86;78.21;101694.22;5105795;27;20123;-68
2023/03/16 00:08:21;;;;;;;9.32;4.40;;;;;;;5.83;78.48;101689.25;5114244;28;20051;-67
2023/03/16 00:10:49;;;;;;;8.85;4.80;;;;;;;5.78;78.94;101683.66;5113976;28;20059;-67
2023/03/16 00:13:18;;;;;;;8.90;4.10;;;;;;;5.73;79.36;101682.41;5113803;28;20484;-66
2023/03/16 00:15:54;;;;;;;8.27;4.20;;;;;;;5.78;79.47;101691.75;5096204;28;20043;-67
2023/03/16 00:18:26;;;;;;;8.43;4.50;;;;;;;5.75;79.75;101687.63;5095393;28;20048;-68
2023/03/16 00:21:00;;;;;;;7.85;4.05;;;;;;;5.78;79.47;101691.75;5075625;28;20040;-66
2023/03/16 00:23:28;;;;;;;9.00;4.38;;;;;;;5.73;79.63;101689.69;5092507;28;20052;-68
2023/03/16 00:25:58;;;;;;;9.02;4.28;;;;;;;5.81;80.28;101688.63;5093250;28;20040;-67
2023/03/16 00:28:26;;;;;;;7.75;4.45;;;;;;;5.80;80.92;101685.09;5093730;28;20068;-68
2023/03/16 00:30:58;;;;;;;13.10;4.80;;;;;;;5.69;80.61;101681.16;5095891;28;20403;-67
2023/03/16 00:33:26;;;;;;;9.57;4.47;;;;;;;5.61;81.24;101672.50;5096538;28;20047;-67
2023/03/16 00:36:00;;;;;;;7.70;4.00;;;;;;;5.59;81.66;101671.88;5113490;28;20047;-67
2023/03/16 00:38:36;;;;;;;8.00;4.65;;;;;;;5.63;81.99;101679.34;5102876;28;20484;-67
2023/03/16 00:41:05;;;;;;;10.27;4.60;;;;;;;5.70;82.02;101671.19;5093784;28;20052;-67
2023/03/16 00:43:39;;;;;;;6.65;4.00;;;;;;;5.76;81.32;101659.50;5092625;28;20101;-66
2023/03/16 00:46:10;;;;;;;8.57;4.45;;;;;;;5.70;81.62;101668.47;5059791;28;20408;-66
2023/03/16 00:48:41;;;;;;;6.78;4.05;;;;;;;5.67;81.99;101658.09;5083122;28;20101;-66
2023/03/16 00:51:13;;;;;;;8.60;4.03;;;;;;;5.73;81.96;101657.25;5112754;28;20055;-67
2023/03/16 00:53:44;;;;;;;9.13;4.50;;;;;;;5.73;81.90;101658.06;5114033;28;20058;-67
2023/03/16 00:56:12;;;;;;;9.55;4.60;;;;;;;5.73;82.14;101647.25;5094894;28;20072;-67
2023/03/16 00:58:41;;;;;;;6.93;4.28;;;;;;;5.72;81.78;101650.16;5094168;28;20407;-67
2023/03/16 01:01:18;;;;;;;7.03;4.10;;;;;;;5.69;82.27;101635.22;5075964;28;20538;-67
2023/03/16 01:03:47;;;;;;;7.55;3.90;;;;;;;5.71;82.74;101633.13;5092059;28;20461;-67
2023/03/16 01:06:16;;;;;;;9.82;4.85;;;;;;;5.72;82.67;101629.38;5110116;28;20054;-66
2023/03/16 01:08:45;;;;;;;7.80;4.18;;;;;;;5.78;82.83;101633.09;5078283;28;20488;-68
2023/03/16 01:11:16;;;;;;;8.65;4.00;;;;;;;5.74;82.63;101621.03;5091149;28;20052;-67
2023/03/16 01:13:45;;;;;;;9.10;4.60;;;;;;;5.68;82.56;101616.50;5092951;28;20044;-67
2023/03/16 01:16:14;;;;;;;8.75;4.53;;;;;;;5.59;83.31;101618.63;5093350;28;20044;-66
2023/03/16 01:18:42;;;;;;;12.10;4.47;;;;;;;5.57;83.32;101609.06;5075055;28;20048;-66
2023/03/16 01:21:14;;;;;;;12.65;4.78;;;;;;;5.57;84.07;101598.25;5094662;28;20040;-65
2023/03/16 01:23:43;;;;;;;9.15;4.82;;;;;;;5.59;84.17;101605.09;5078818;28;20700;-66
2023/03/16 01:26:12;;;;;;;7.82;4.32;;;;;;;5.54;84.17;101605.75;5111602;28;20457;-66
2023/03/16 01:28:39;;;;;;;8.27;4.57;;;;;;;5.53;84.33;101603.25;5112627;28;20040;-66
2023/03/16 01:31:09;;;;;;;9.27;4.47;;;;;;;5.58;84.98;101600.75;5101750;28;20049;-66
2023/03/16 01:33:38;;;;;;;12.48;4.72;;;;;;;5.59;84.82;101599.69;5085289;28;20044;-68
2023/03/16 01:36:11;;;;;;;7.45;4.03;;;;;;;5.63;84.71;101591.97;5094969;28;20103;-67
2023/03/16 01:39:09;;;;;;;9.38;4.70;;;;;;;5.65;84.53;101587.19;5095014;28;20123;-67
2023/03/16 01:41:43;;;;;;;9.38;4.60;;;;;;;5.65;84.44;101579.06;5137988;27;20039;-68
2023/03/16 01:44:21;;;;;;;9.55;3.92;;;;;;;5.69;84.30;101580.31;5129130;28;20480;-67
2023/03/16 01:46:49;;;;;;;8.25;4.60;;;;;;;5.68;84.42;101579.50;5099365;28;20055;-67
2023/03/16 01:49:27;;;;;;;8.02;4.88;;;;;;;5.70;83.83;101581.94;5116727;28;20506;-67
2023/03/16 01:52:09;;;;;;;7.30;3.85;;;;;;;5.67;84.00;101587.81;5078018;28;20040;-67
2023/03/16 01:55:11;;;;;;;9.98;4.70;;;;;;;5.67;84.06;101583.22;5095362;28;20488;-66
2023/03/16 01:57:42;;;;;;;8.27;4.47;;;;;;;5.63;84.11;101571.19;5082904;28;20064;-66
2023/03/16 02:00:22;;;;;;;7.90;4.13;;;;;;;5.59;84.20;101569.16;5079049;28;20055;-66
2023/03/16 02:03:17;;;;;;;6.63;4.25;;;;;;;5.58;84.48;101578.28;5084049;28;20047;-67
2023/03/16 02:06:19;;;;;;;7.95;4.53;;;;;;;5.58;84.76;101565.63;5093051;28;20522;-66
2023/03/16 02:08:54;;;;;;;7.03;4.10;;;;;;;5.58;85.03;101562.06;5096702;28;20443;-66
2023/03/16 02:11:22;;;;;;;6.82;4.10;;;;;;;5.54;84.75;101557.09;5095569;28;20143;-66
2023/03/16 02:14:08;;;;;;;8.15;4.53;;;;;;;5.41;85.15;101549.06;5097361;28;20408;-66
2023/03/16 02:16:36;;;;;;;7.65;4.40;;;;;;;5.42;85.77;101556.13;5115947;28;20419;-67
2023/03/16 02:19:08;;;;;;;11.02;4.32;;;;;;;5.48;85.86;101546.31;5113663;28;20043;-63
2023/03/16 02:22:00;;;;;;;8.48;4.22;;;;;;;5.51;85.64;101546.72;5100378;28;20055;-64
2023/03/16 02:24:29;;;;;;;9.18;4.38;;;;;;;5.53;85.48;101547.34;5100958;28;20061;-65
2023/03/16 02:27:03;;;;;;;8.88;4.05;;;;;;;5.48;85.53;101541.75;5104661;28;20055;-66
2023/03/16 02:29:58;;;;;;;8.48;4.38;;;;;;;5.49;85.92;101535.28;5089729;28;20051;-64
2023/03/16 02:32:28;;;;;;;8.00;4.47;;;;;;;5.47;85.69;101536.56;5078024;28;20066;-67
2023/03/16 02:34:58;;;;;;;7.03;4.32;;;;;;;5.43;85.78;101533.44;5083403;28;20044;-66
2023/03/16 02:37:26;;;;;;;10.32;4.10;;;;;;;5.42;86.18;101537.22;5114954;28;20131;-66
2023/03/16 02:39:54;;;;;;;6.78;4.05;;;;;;;5.45;85.94;101535.94;5118818;28;20074;-67
2023/03/16 02:42:24;;;;;;;7.88;3.05;;;;;;;5.45;86.23;101541.34;5103602;28;20040;-66
2023/03/16 02:44:55;;;;;;;7.60;4.10;;;;;;;5.51;86.50;101541.31;5108449;27;20053;-66
2023/03/16 02:47:40;;;;;;;6.00;3.80;;;;;;;5.51;86.38;101552.13;5135926;27;20177;-66
2023/03/16 02:50:11;;;;;;;7.95;4.07;;;;;;;5.54;86.79;101551.69;5118554;27;20571;-65
2023/03/16 02:52:39;;;;;;;6.35;3.92;;;;;;;5.55;87.16;101550.63;5131190;27;20051;-66
2023/03/16 02:55:08;;;;;;;9.65;4.10;;;;;;;5.50;87.34;101538.81;5114274;27;20040;-66
2023/03/16 02:57:36;;;;;;;6.82;3.70;;;;;;;5.52;88.39;101553.78;5114150;28;20568;-66
2023/03/16 03:00:15;;;;;;;10.77;4.13;;;;;;;5.47;88.67;101548.19;5113925;28;20060;-66
2023/03/16 03:02:45;;;;;;;6.72;3.78;;;;;;;5.50;89.16;101536.94;5114023;28;20075;-66
2023/03/16 03:05:13;;;;;;;7.35;3.90;;;;;;;5.45;89.03;101535.94;5114915;27;20050;-64
2023/03/16 03:07:41;;;;;;;7.20;4.18;;;;;;;5.42;89.96;101542.63;5097056;28;20039;-66
2023/03/16 03:10:09;;;;;;;8.88;4.20;;;;;;;5.37;90.61;101533.50;5113998;28;20056;-66
2023/03/16 03:12:37;;;;;;;7.30;4.00;;;;;;;5.39;91.15;101536.78;5097011;28;20039;-66
2023/03/16 03:15:08;;;;;;;7.20;3.90;;;;;;;5.38;90.95;101544.06;5113894;28;20040;-65
2023/03/16 03:17:46;;;;;;;7.25;3.70;;;;;;;5.36;91.13;101537.22;5102266;28;20135;-65
2023/03/16 03:20:17;;;;;;;8.77;4.45;;;;;;;5.35;91.61;101531.00;5086380;28;20051;-67
2023/03/16 03:22:47;;;;;;;10.68;4.10;;;;;;;5.37;91.76;101523.53;5060558;28;20047;-67
2023/03/16 03:25:17;;;;;;;10.20;4.38;;;;;;;5.42;91.72;101521.00;5093341;28;20051;-65
2023/03/16 03:27:46;;;;;;;7.13;4.25;;;;;;;5.45;91.69;101515.16;5092989;28;20518;-66
2023/03/16 03:30:18;;;;;;;8.05;4.63;;;;;;;5.49;91.58;101521.78;5077085;28;20052;-66
2023/03/16 03:32:47;;;;;;;7.22;4.10;;;;;;;5.45;91.34;101519.72;5076545;28;20048;-66
2023/03/16 03:35:16;;;;;;;8.95;4.20;;;;;;;5.44;91.58;101513.50;5098502;28;20043;-66
2023/03/16 03:37:44;;;;;;;7.60;3.80;;;;;;;5.45;91.14;101509.75;5092922;28;20077;-67
2023/03/16 03:40:15;;;;;;;8.98;4.30;;;;;;;5.46;91.17;101507.84;5060054;28;20075;-67
2023/03/16 03:42:46;;;;;;;8.27;4.50;;;;;;;5.48;90.86;101503.94;5059914;28;20408;-67
2023/03/16 03:45:14;;;;;;;6.35;3.92;;;;;;;5.48;91.03;101497.66;5076211;28;20352;-67
2023/03/16 03:47:43;;;;;;;10.82;4.15;;;;;;;5.50;90.83;101500.97;5102510;27;20483;-68
2023/03/16 03:50:15;;;;;;;9.10;4.05;;;;;;;5.50;90.44;101491.00;5097597;28;20055;-68
2023/03/16 03:53:12;;;;;;;9.70;3.97;;;;;;;5.48;90.87;101501.22;5104659;28;20499;-67
2023/03/16 03:55:59;;;;;;;7.43;3.83;;;;;;;5.48;90.88;101500.38;5113002;28;20101;-66
2023/03/16 03:58:26;;;;;;;8.93;3.60;;;;;;;5.47;90.78;101496.84;5089277;28;20134;-66
2023/03/16 04:00:54;;;;;;;9.48;4.35;;;;;;;5.39;90.22;101491.72;5092325;28;20122;-66
2023/03/16 04:03:22;;;;;;;8.02;3.90;;;;;;;5.36;90.94;101492.13;5109306;28;20052;-66
2023/03/16 04:05:49;;;;;;;6.40;3.70;;;;;;;5.36;91.05;101494.81;5082367;28;20094;-65
2023/03/16 04:08:17;;;;;;;7.72;3.70;;;;;;;5.36;91.07;101494.81;5094045;27;20048;-67
2023/03/16 04:10:46;;;;;;;7.65;3.97;;;;;;;5.41;91.31;101494.16;5093234;28;20112;-66
2023/03/16 04:13:14;;;;;;;7.53;3.72;;;;;;;5.38;90.86;101490.03;5093174;28;20503;-66
2023/03/16 04:15:45;;;;;;;10.40;3.92;;;;;;;5.32;90.97;101489.03;5093921;28;20051;-67
2023/03/16 04:18:23;;;;;;;7.95;3.80;;;;;;;5.29;90.72;101484.06;5081427;28;20048;-67
2023/03/16 04:20:52;;;;;;;7.65;3.60;;;;;;;5.29;91.04;101491.31;5114657;28;20105;-66
2023/03/16 04:23:23;;;;;;;9.80;3.80;;;;;;;5.29;90.88;101494.03;5100416;28;20043;-66
2023/03/16 04:25:53;;;;;;;7.28;4.18;;;;;;;5.34;91.48;101491.53;5115929;28;20043;-66
2023/03/16 04:28:25;;;;;;;7.95;4.00;;;;;;;5.33;91.10;101487.16;5105395;28;20050;-66
2023/03/16 04:30:53;;;;;;;7.28;3.97;;;;;;;5.33;91.62;101479.06;5085969;28;20114;-67
2023/03/16 04:33:31;;;;;;;8.10;4.10;;;;;;;5.37;91.79;101474.06;5092168;28;20055;-66
2023/03/16 04:36:01;;;;;;;9.40;4.15;;;;;;;5.42;91.07;101476.94;5093244;28;20076;-66
2023/03/16 04:38:32;;;;;;;8.75;3.97;;;;;;;5.42;91.07;101480.47;5092515;28;20079;-67
2023/03/16 04:41:02;;;;;;;6.97;3.80;;;;;;;5.42;90.21;101477.75;5105775;28;20047;-67
2023/03/16 04:43:35;;;;;;;7.60;3.80;;;;;;;5.42;90.41;101477.75;5096330;28;20071;-67
2023/03/16 04:46:13;;;;;;;9.57;3.88;;;;;;;5.38;90.42;101481.94;5081731;28;20044;-66
2023/03/16 04:48:41;;;;;;;7.50;3.70;;;;;;;5.39;90.82;101480.03;5095003;28;20051;-67
2023/03/16 04:51:09;;;;;;;9.02;4.18;;;;;;;5.36;90.62;101477.78;5112679;28;20052;-66
2023/03/16 04:53:43;;;;;;;6.57;4.03;;;;;;;5.36;91.03;101473.19;5112509;28;20118;-67
2023/03/16 04:56:22;;;;;;;8.60;4.07;;;;;;;5.36;90.32;101475.09;5111894;28;20054;-67
2023/03/16 04:58:56;;;;;;;16.60;3.90;;;;;;;5.32;90.56;101466.59;5095451;28;20059;-66
2023/03/16 05:01:28;;;;;;;8.77;3.92;;;;;;;5.32;90.74;101469.31;5095299;28;20502;-67
2023/03/16 05:03:58;;;;;;;7.50;3.45;;;;;;;5.30;90.50;101469.50;5110499;28;20054;-67
2023/03/16 05:06:28;;;;;;;6.25;3.80;;;;;;;5.32;91.00;101461.19;5073828;28;20048;-68
2023/03/16 05:08:59;;;;;;;7.38;3.50;;;;;;;5.39;91.04;101461.97;5077001;28;20070;-68
2023/03/16 05:11:28;;;;;;;6.82;3.55;;;;;;;5.37;91.12;101464.06;5061714;28;20507;-68
2023/03/16 05:13:59;;;;;;;8.55;3.20;;;;;;;5.39;90.61;101461.13;5112406;28;20081;-67
2023/03/16 05:16:28;;;;;;;8.93;3.83;;;;;;;5.34;90.66;101456.41;5098588;28;20051;-68
2023/03/16 05:19:00;;;;;;;7.05;3.70;;;;;;;5.25;91.21;101455.81;5082754;28;20487;-67
2023/03/16 05:21:33;;;;;;;7.80;3.80;;;;;;;5.25;91.49;101455.00;5100019;28;20058;-67
2023/03/16 05:24:07;;;;;;;7.05;4.00;;;;;;;5.25;92.16;101449.59;5099579;28;20051;-66
2023/03/16 05:26:35;;;;;;;8.23;4.20;;;;;;;5.29;92.13;101453.50;5088064;28;20071;-66
2023/03/16 05:29:05;;;;;;;8.88;3.88;;;;;;;5.30;92.27;101452.47;5078377;28;20044;-67
2023/03/16 05:31:34;;;;;;;7.28;3.67;;;;;;;5.30;92.62;101447.06;5096655;28;20054;-66
2023/03/16 05:34:08;;;;;;;8.35;3.80;;;;;;;5.31;92.40;101444.13;5080266;28;20050;-67
2023/03/16 05:36:36;;;;;;;10.23;4.20;;;;;;;5.30;92.66;101441.66;5095366;28;20548;-67
2023/03/16 05:39:12;;;;;;;7.47;3.90;;;;;;;5.29;91.82;101450.81;5063234;28;20491;-68
2023/03/16 05:41:44;;;;;;;6.32;3.97;;;;;;;5.13;92.85;101452.97;5095031;28;20036;-66
2023/03/16 05:44:15;;;;;;;9.43;4.50;;;;;;;5.12;94.12;101456.75;5090789;28;20044;-67
2023/03/16 05:47:06;;;;;;;8.05;4.25;;;;;;;5.13;94.20;101444.88;5084449;28;20048;-67
2023/03/16 05:49:39;;;;;;;8.13;4.60;;;;;;;5.15;94.32;101438.41;5115276;28;20047;-67
2023/03/16 05:52:18;;;;;;;7.80;4.43;;;;;;;5.20;94.40;101438.63;5108982;28;20056;-67
2023/03/16 05:54:46;;;;;;;7.20;3.97;;;;;;;5.23;94.18;101439.00;5114812;28;20051;-67
2023/03/16 05:57:14;;;;;;;11.50;4.10;;;;;;;5.28;94.14;101439.16;5098584;28;20044;-67
2023/03/16 05:59:44;;;;;;;8.85;3.80;;;;;;;5.32;93.58;101447.69;5096204;28;20056;-66
2023/03/16 06:02:13;;;;;;;9.25;4.47;;;;;;;5.33;93.35;101452.03;5095200;28;20372;-67
2023/03/16 06:04:40;;;;;;;8.05;3.90;;;;;;;5.34;93.34;101438.31;5099081;28;20075;-67
2023/03/16 06:07:09;;;;;;;8.52;4.28;;;;;;;5.39;93.44;101439.50;5099263;28;20384;-66
2023/03/16 06:09:37;;;;;;;7.28;3.83;;;;;;;5.41;93.17;101438.28;5116255;27;20542;-67
2023/03/16 06:12:10;;;;;;;6.90;4.20;;;;;;;5.42;93.49;101439.91;5117549;28;20526;-67
2023/03/16 06:14:40;;;;;;;10.23;3.97;;;;;;;5.45;93.52;101442.19;5117131;27;20051;-67
2023/03/16 06:17:07;;;;;;;8.27;4.10;;;;;;;5.47;93.28;101437.38;5101433;28;20388;-66
2023/03/16 06:19:36;;;;;;;7.20;3.72;;;;;;;5.49;93.21;101440.69;5133121;28;20063;-64
2023/03/16 06:22:04;;;;;;;10.13;4.53;;;;;;;5.50;93.34;101436.94;5135887;28;20043;-65
2023/03/16 06:24:32;;;;;;;7.57;4.13;;;;;;;5.51;93.32;101438.59;5122536;27;20059;-66
2023/03/16 06:27:00;;;;;;;9.27;3.97;;;;;;;5.54;93.28;101427.34;5145180;27;20047;-64
2023/03/16 06:29:34;;;;;;;6.75;3.80;;;;;;;5.57;93.43;101441.47;5121490;27;20142;-61
2023/03/16 06:32:03;;;;;;;6.93;4.20;;;;;;;5.58;93.25;101437.72;4715253;28;10000542;-66
2023/03/16 06:34:33;;;;;;;9.07;4.57;;;;;;;5.55;93.17;101439.81;5072377;28;20044;-65
2023/03/16 06:37:02;;;;;;;8.15;3.95;;;;;;;5.53;93.74;101435.66;5129945;27;20147;-66
2023/03/16 06:39:31;;;;;;;9.15;4.40;;;;;;;5.52;94.09;101434.84;5132712;27;20046;-68
2023/03/16 06:41:59;;;;;;;8.95;4.18;;;;;;;5.53;93.95;101431.13;5114248;27;20039;-68
2023/03/16 06:44:27;;;;;;;6.72;3.75;;;;;;;5.54;94.00;101443.56;5106640;27;20131;-68
2023/03/16 06:47:09;;;;;;;8.18;4.18;;;;;;;5.53;94.55;101436.53;5090788;28;20051;-70
2023/03/16 06:49:37;;;;;;;9.45;4.10;;;;;;;5.56;94.77;101437.97;5091825;28;20047;-68
2023/03/16 06:52:13;;;;;;;9.70;3.88;;;;;;;5.60;94.96;101443.75;5073432;28;20126;-70
2023/03/16 06:54:41;;;;;;;8.63;4.10;;;;;;;5.60;94.90;101435.63;5087899;28;20485;-68
2023/03/16 06:57:09;;;;;;;7.72;3.72;;;;;;;5.60;95.00;101446.44;5074027;28;20047;-68
2023/03/16 06:59:37;;;;;;;4.40;2.70;;;;;;;5.65;95.20;101449.31;5090590;28;20060;-67
2023/03/16 07:02:05;;;;;;;9.18;4.28;;;;;;;5.60;95.67;101435.63;5091320;28;20115;-67
2023/03/16 07:04:33;;;;;;;6.90;3.65;;;;;;;5.53;95.48;101436.53;5093218;28;20519;-68
2023/03/16 07:07:01;;;;;;;8.27;4.43;;;;;;;5.54;95.75;101434.63;5073712;28;20256;-68
2023/03/16 07:09:28;;;;;;;10.98;4.40;;;;;;;5.47;96.56;101426.56;5093910;28;20047;-68
2023/03/16 07:11:56;;;;;;;9.63;4.18;;;;;;;5.51;97.14;101422.41;5097995;28;20113;-67
2023/03/16 07:14:25;;;;;;;10.68;4.50;;;;;;;5.58;97.21;101421.50;5097441;27;20052;-68
2023/03/16 07:16:54;;;;;;;9.32;4.20;;;;;;;5.60;97.52;101416.69;5103160;28;20074;-69
2023/03/16 07:19:23;;;;;;;7.25;4.10;;;;;;;5.59;97.55;101417.78;5084215;28;20066;-68
2023/03/16 07:21:53;;;;;;;9.15;4.45;;;;;;;5.60;98.11;101422.94;5094377;28;20089;-67
2023/03/16 07:24:22;;;;;;;10.98;4.47;;;;;;;5.59;98.05;101420.47;5077635;28;20060;-66
2023/03/16 07:26:49;;;;;;;9.00;4.30;;;;;;;5.62;98.12;101418.13;5107323;27;20054;-68
2023/03/16 07:29:25;;;;;;;10.82;4.00;;;;;;;5.67;97.99;101414.78;5112054;28;20044;-67
2023/03/16 07:31:53;;;;;;;9.00;4.28;;;;;;;5.69;98.72;101418.09;5094200;28;20044;-68
2023/03/16 07:34:26;;;;;;;9.75;4.63;;;;;;;5.70;98.40;101427.84;5093183;28;20047;-67
2023/03/16 07:36:57;;;;;;;11.65;5.05;;;;;;;5.74;98.67;101420.97;5110810;28;20051;-66
2023/03/16 07:39:30;;;;;;;9.38;4.82;;;;;;;5.77;98.92;101431.31;5110257;28;20329;-66
2023/03/16 07:42:05;;;;;;;8.95;4.45;;;;;;;5.78;98.88;101422.19;5091996;28;20097;-68
2023/03/16 07:44:52;;;;;;;11.15;4.95;;;;;;;5.77;98.23;101425.91;5078042;28;20048;-68
2023/03/16 07:47:19;;;;;;;9.13;4.78;;;;;;;5.76;99.03;101418.88;5058848;28;20051;-67
2023/03/16 07:49:49;;;;;;;10.02;4.55;;;;;;;5.78;98.82;101419.47;5076220;28;20044;-69
2023/03/16 07:52:17;;;;;;;12.15;5.28;;;;;;;5.78;98.30;101416.78;5093834;28;20048;-68
2023/03/16 07:54:47;;;;;;;10.45;4.97;;;;;;;5.80;98.35;101424.63;5074140;28;20054;-68
2023/03/16 07:57:15;;;;;;;10.23;4.80;;;;;;;5.78;98.03;101419.47;5091039;28;20076;-68
2023/03/16 07:59:43;;;;;;;16.20;4.90;;;;;;;5.84;98.41;101409.63;5073653;28;20091;-67
2023/03/16 08:02:17;;;;;;;10.32;4.63;;;;;;;5.85;99.02;101398.59;5073162;28;20484;-68
2023/03/16 08:04:47;;;;;;;15.05;5.13;;;;;;;5.89;99.20;101410.66;5077909;28;20047;-69
2023/03/16 08:07:15;;;;;;;11.88;5.00;;;;;;;5.88;98.55;101403.56;5084969;28;20052;-69
2023/03/16 08:09:53;;;;;;;9.02;4.57;;;;;;;5.86;99.64;101402.97;5076127;28;20047;-68
2023/03/16 08:12:27;;;;;;;10.15;5.07;;;;;;;5.91;99.30;101399.59;5072631;28;20059;-67
2023/03/16 08:14:55;;;;;;;15.02;5.55;;;;;;;5.87;99.37;101410.03;5064225;28;20048;-67
2023/03/16 08:17:27;;;;;;;11.55;5.13;;;;;;;5.87;100.00;101404.63;5092775;28;20407;-67
2023/03/16 08:19:56;;;;;;;10.88;5.07;;;;;;;5.90;99.91;101400.66;5076075;28;20050;-69
2023/03/16 08:22:24;;;;;;;11.85;4.97;;;;;;;5.91;100.00;101395.00;5094301;28;20047;-68
2023/03/16 08:24:55;;;;;;;10.85;4.82;;;;;;;5.92;100.00;101393.97;5112840;28;20084;-67
2023/03/16 08:27:24;;;;;;;8.75;4.60;;;;;;;5.99;100.00;101402.06;5101691;28;20054;-68
2023/03/16 08:30:03;;;;;;;10.50;4.57;;;;;;;6.01;99.33;101402.63;5092360;28;20408;-67
2023/03/16 08:32:32;;;;;;;11.50;4.30;;;;;;;6.04;99.10;101401.34;5055628;28;20164;-67
2023/03/16 08:35:00;;;;;;;9.07;4.50;;;;;;;6.08;98.77;101400.69;5106807;28;20095;-66
2023/03/16 08:37:28;;;;;;;11.55;4.70;;;;;;;6.07;98.50;101396.34;5094059;28;20044;-66
2023/03/16 08:39:59;;;;;;;8.43;4.43;;;;;;;6.08;98.78;101399.88;5074373;28;20048;-68
2023/03/16 08:42:28;;;;;;;10.25;4.65;;;;;;;6.10;98.23;101398.59;5062151;28;20036;-68
2023/03/16 08:45:08;;;;;;;8.60;4.20;;;;;;;6.11;97.64;101402.13;5079449;28;20059;-67
2023/03/16 08:47:40;;;;;;;8.40;3.92;;;;;;;6.08;96.85;101406.09;5096671;28;20052;-67
2023/03/16 08:50:11;;;;;;;12.35;4.57;;;;;;;6.06;97.39;101405.53;5079294;28;20047;-67
2023/03/16 08:52:39;;;;;;;7.00;3.58;;;;;;;6.08;98.08;101414.22;5079078;28;20128;-67
2023/03/16 08:55:09;;;;;;;11.55;4.18;;;;;;;6.14;98.40;101401.69;5105825;28;20119;-68
2023/03/16 08:57:38;;;;;;;9.27;4.18;;;;;;;6.18;97.71;101402.88;5110324;28;20047;-68
2023/03/16 09:00:13;;;;;;;7.40;3.97;;;;;;;6.19;97.68;101401.84;5117044;28;20087;-67
2023/03/16 09:02:41;;;;;;;8.60;3.90;;;;;;;6.24;98.54;101399.28;5094093;28;20047;-67
2023/03/16 09:05:11;;;;;;;12.20;4.47;;;;;;;6.26;98.29;101391.78;5100737;28;20035;-67
2023/03/16 09:07:39;;;;;;;8.30;4.20;;;;;;;6.24;97.34;101388.47;5111587;28;20046;-67
2023/03/16 09:10:07;;;;;;;11.10;4.30;;;;;;;6.21;97.45;101383.50;5117927;27;20093;-68
2023/03/16 09:12:36;;;;;;;10.93;4.32;;;;;;;6.21;97.50;101372.69;5116631;28;20035;-68
2023/03/16 09:15:05;;;;;;;10.57;4.55;;;;;;;6.22;96.36;101379.72;5082688;28;20149;-66
2023/03/16 09:17:34;;;;;;;9.70;4.40;;;;;;;6.22;97.13;101378.91;5116505;28;20514;-67
2023/03/16 09:20:07;;;;;;;8.75;4.63;;;;;;;6.23;97.07;101375.16;5117900;28;20059;-68
2023/03/16 09:22:49;;;;;;;7.72;3.72;;;;;;;6.26;96.47;101378.25;5101853;28;20081;-67
2023/03/16 09:25:17;;;;;;;11.50;4.18;;;;;;;6.36;96.21;101381.25;5117969;28;20074;-68
2023/03/16 09:27:45;;;;;;;7.40;3.65;;;;;;;6.35;95.29;101381.44;5117298;28;20131;-67
2023/03/16 09:30:15;;;;;;;7.90;3.20;;;;;;;6.39;95.64;101371.84;5116601;28;20035;-66
2023/03/16 09:32:43;;;;;;;11.07;3.50;;;;;;;6.40;95.13;101371.63;5117080;28;20055;-67
2023/03/16 09:35:11;;;;;;;7.88;3.45;;;;;;;6.44;95.07;101363.03;5117479;28;20074;-67
2023/03/16 09:37:39;;;;;;;8.32;3.45;;;;;;;6.54;98.58;101360.63;5117940;28;20055;-66
2023/03/16 09:40:27;;;;;;;8.95;3.58;;;;;;;6.69;93.71;101369.19;5117930;28;20044;-67
2023/03/16 09:43:00;;;;;;;10.85;3.90;;;;;;;6.70;92.52;101373.53;5116825;28;20047;-67
2023/03/16 09:45:53;;;;;;;7.55;3.63;;;;;;;6.71;93.05;101372.50;5116196;28;20451;-67
2023/03/16 09:48:24;;;;;;;7.07;3.20;;;;;;;6.74;93.88;101363.91;5109279;28;20055;-67
2023/03/16 09:50:54;;;;;;;6.93;3.35;;;;;;;6.82;92.54;101351.91;5100246;28;20055;-66
2023/03/16 09:53:28;;;;;;;7.75;3.67;;;;;;;6.85;93.43;101356.88;5101879;28;20048;-67
2023/03/16 09:56:04;;;;;;;9.05;3.72;;;;;;;6.88;92.74;101366.41;5118808;28;20488;-67
2023/03/16 09:58:32;;;;;;;20.40;5.20;;;;;;;6.98;92.82;101361.28;5118866;28;20134;-67
2023/03/16 10:01:08;;;;;;;11.82;3.97;;;;;;;7.08;90.30;101361.53;5116835;28;20100;-66
2023/03/16 10:03:39;;;;;;;7.13;3.25;;;;;;;7.23;91.34;101358.41;5131159;28;20051;-65
2023/03/16 10:06:11;;;;;;;8.02;3.35;;;;;;;7.17;88.29;101359.34;5117094;28;20056;-67
2023/03/16 10:08:54;;;;;;;17.13;5.00;;;;;;;7.31;90.64;101351.81;5115419;28;20131;-66
2023/03/16 10:11:42;;;;;;;10.90;4.03;;;;;;;7.32;87.66;101342.63;5117960;28;20052;-68
2023/03/16 10:14:20;;;;;;;14.07;3.92;;;;;;;7.28;88.29;101344.16;5118932;28;20055;-67
2023/03/16 10:16:55;;;;;;;8.98;3.97;;;;;;;7.31;88.42;101343.66;5084256;28;20043;-67
2023/03/16 10:19:29;;;;;;;15.68;5.57;;;;;;;7.51;89.33;101330.63;5115017;28;20048;-65
2023/03/16 10:21:59;;;;;;;8.25;3.47;;;;;;;7.49;88.11;101327.31;5133710;28;20046;-66
2023/03/16 10:24:55;;;;;;;15.38;5.07;;;;;;;7.58;89.11;101328.63;5119877;28;20047;-67
2023/03/16 10:27:30;;;;;;;9.55;3.67;;;;;;;7.53;86.87;101331.22;5113170;28;20051;-67
2023/03/16 10:30:00;;;;;;;13.50;4.38;;;;;;;7.69;88.08;101325.06;5136616;28;20054;-64
2023/03/16 10:32:33;;;;;;;9.32;3.33;;;;;;;7.67;85.20;101327.22;5107492;28;20123;-67
2023/03/16 10:35:12;;;;;;;9.32;3.83;;;;;;;7.83;85.37;101324.84;5083458;28;20097;-67
2023/03/16 10:37:40;;;;;;;10.02;4.60;;;;;;;8.03;86.09;101325.28;5103764;28;20430;-68
2023/03/16 10:40:11;;;;;;;7.80;3.50;;;;;;;7.92;83.55;101323.41;5101833;28;20139;-67
2023/03/16 10:42:40;;;;;;;6.13;3.33;;;;;;;7.90;82.57;101317.41;5097939;28;20100;-67
2023/03/16 10:45:33;;;;;;;6.65;3.03;;;;;;;7.93;83.28;101314.19;5114688;28;20040;-67
2023/03/16 10:48:14;;;;;;;9.25;3.88;;;;;;;7.95;84.04;101317.50;5103015;28;20461;-67
2023/03/16 10:50:43;;;;;;;8.48;3.63;;;;;;;7.98;82.85;101299.91;5114209;28;20559;-66
2023/03/16 10:53:27;;;;;;;14.13;4.80;;;;;;;8.17;86.83;101303.31;5096424;28;20556;-67
2023/03/16 10:56:00;;;;;;;7.60;3.65;;;;;;;8.16;82.04;101304.38;5079698;28;20538;-68
2023/03/16 10:58:33;;;;;;;26.80;8.05;;;;;;;8.42;91.85;101303.84;5113733;28;20049;-68
2023/03/16 11:01:02;;;;;;;8.63;3.80;;;;;;;8.34;82.88;101301.47;5041063;28;1115068;-67
2023/03/16 11:03:40;;;;;;;7.57;3.65;;;;;;;8.33;82.20;101302.56;5114211;28;20051;-67
2023/03/16 11:06:19;;;;;;;6.25;3.38;;;;;;;8.43;80.93;101291.09;5115026;28;20059;-67
2023/03/16 11:08:47;;;;;;;26.85;7.80;;;;;;;8.58;88.98;101290.56;5114792;28;20479;-66
2023/03/16 11:11:28;;;;;;;8.77;3.38;;;;;;;8.57;82.73;101288.94;5098359;28;20054;-67
2023/03/16 11:14:01;;;;;;;17.88;5.97;;;;;;;8.70;89.79;101286.72;5097804;28;20043;-67
2023/03/16 11:16:47;;;;;;;12.35;3.40;;;;;;;8.62;78.65;101280.88;5115658;28;20056;-67
2023/03/16 11:19:24;;;;;;;19.38;5.70;;;;;;;8.62;80.87;101273.53;5097796;28;20444;-68
2023/03/16 11:22:01;;;;;;;10.63;3.60;;;;;;;8.67;78.79;101270.09;5114136;28;20085;-66
2023/03/16 11:24:44;;;;;;;13.73;5.15;;;;;;;8.80;82.71;101264.34;5115135;28;20039;-68
2023/03/16 11:27:41;;;;;;;9.23;3.83;;;;;;;8.66;78.68;101261.13;5113573;28;20047;-67
2023/03/16 11:30:22;;;;;;;8.38;3.85;;;;;;;8.75;80.78;101258.81;5105522;28;20060;-67
2023/03/16 11:32:52;;;;;;;7.20;3.20;;;;;;;8.72;77.03;101251.16;5114668;28;20043;-67
2023/03/16 11:35:29;;;;;;;6.35;2.83;;;;;;;8.69;76.62;101247.03;5113495;28;20043;-68
2023/03/16 11:38:12;;;;;;;13.57;4.38;;;;;;;8.77;76.27;101253.16;5094073;27;20068;-67
2023/03/16 11:41:01;;;;;;;7.53;3.17;;;;;;;8.80;82.75;101248.03;5086899;28;20082;-68
2023/03/16 11:43:52;;;;;;;10.50;3.75;;;;;;;8.80;74.20;101239.06;5076645;28;20040;-68
2023/03/16 11:46:33;;;;;;;14.70;3.95;;;;;;;8.80;74.64;101233.63;5098225;27;20048;-67
2023/03/16 11:49:27;;;;;;;9.55;4.00;;;;;;;8.81;74.52;101235.28;5076247;28;20047;-67
2023/03/16 11:52:33;;;;;;;11.25;3.97;;;;;;;8.83;74.62;101225.81;5091506;28;20055;-66
2023/03/16 11:55:32;;;;;;;13.55;4.05;;;;;;;8.87;74.77;101232.38;5083260;28;20126;-66
2023/03/16 11:58:19;;;;;;;15.30;4.63;;;;;;;8.96;74.65;101227.38;5090464;28;20047;-66